Warning: Javascript must be enabled to use all the features on this page!


Page Loading - Please Wait...

Click to hideNews Bulletins

Peak Streamflow for the Nation

USGS 04218518 ELLICOTT CREEK BELOW WILLIAMSVILLE NY

Erie County, New York
Hydrologic Unit Code 04120104
Latitude  42°58'40", Longitude  78°45'49" NAD83
Drainage area 81.6  square miles
Contributing drainage area 81.6  square miles
Gage datum 585.95 feet above NAVD88
Output formats
Table
Graph
Tab-separated file
peakfq (watstore) format
Reselect output format
Water
Year
Date Gage
Height
(feet)
Stream-
flow
(cfs)
1936 1936-03-17   6,8002,7
1973 1972-12-07 7.94 1,980
1974 1974-02-23 7.41 1,700
1975 1975-01-30 7.24 1,700
1976 1976-03-05 8.62 2,250
1977 1977-09-26 9.23 2,490
1978 1978-03-22 7.84 1,940
1979 1979-03-05 9.16 2,550
1980 1979-12-26 6.19 1,380
1981 1980-10-27 5.962 1,290
1982 1982-03-14 7.76 1,980
1983 1983-02-03 5.272 1,030
1984 1984-02-14 8.50 2,280
1985 1985-02-25 11.19 3,640
1986 1986-01-21 7.53 1,830
1987 1987-04-06 6.50 1,410
1988 1987-11-30 5.85 1,170
1989 1989-06-09 6.00 1,270
1990 1990-04-12 6.69 1,540
1991 1990-12-31 8.02 2,100
1992 1992-09-23 6.39 1,420
1993 1993-03-28 6.97 1,660
1994 1994-02-22 6.76 1,570
1995 1995-03-08 7.15 1,730
1996 1996-01-19 9.04 2,550
1997 1996-10-21 6.35 1,410
1998 1998-01-09 10.18 3,090
1999 1999-01-25 9.94 2,970
2000 2000-04-09 6.79 1,580
2001 2001-02-10 7.99 2,090
2002 2002-02-02 7.83 2,020
2003 2003-03-19 6.87 1,610
2004 2004-09-10 9.87 2,940
2005 2005-04-03 6.79 1,580
2006 2006-02-18 6.11 1,310
2007 2006-10-15 8.042 2,110
2008 2008-02-06 8.16 2,160
2009 2008-12-28 10.35 3,190
2010 2010-01-26 7.78 2,000
2011 2011-03-06 7.77 1,990
2012 2012-01-18 5.86 1,210
2013 2013-04-11 6.30 1,380
2014 2013-12-22 9.68 2,850
2015 2014-11-25 9.07 2,570
2016 2016-02-25 5.59 1,110
2017 2017-04-22 8.75 2,430
2018 2017-11-07 7.79 1,990
2019 2019-02-06 6.65 1,520
2020 2019-11-02 6.97 1,650
2021 2021-01-01 5.40 1,040
?
  Peak Gage-Height Qualification Codes.
?
  Peak Streamflow Qualification Codes.